createdAt,value
2022-11-25T00:02:07.246Z,3.38
2022-11-25T00:07:09.843Z,3.39
2022-11-25T00:12:12.362Z,3.25
2022-11-25T00:17:14.855Z,3.30
2022-11-25T00:22:17.787Z,3.20
2022-11-25T00:27:20.481Z,3.09
2022-11-25T00:32:22.949Z,3.15
2022-11-25T00:37:25.350Z,3.23
2022-11-25T00:42:46.652Z,3.08
2022-11-25T00:47:49.148Z,3.18
2022-11-25T00:52:54.006Z,3.10
2022-11-25T00:57:56.550Z,2.95
2022-11-25T01:02:59.121Z,3.11
2022-11-25T01:08:01.649Z,3.04
2022-11-25T01:13:04.237Z,3.00
2022-11-25T01:18:06.702Z,3.02
2022-11-25T01:23:09.254Z,2.75
2022-11-25T01:28:11.776Z,2.77
2022-11-25T01:33:14.260Z,2.87
2022-11-25T01:38:16.759Z,2.95
2022-11-25T01:43:20.413Z,3.00
2022-11-25T01:48:29.371Z,3.03
2022-11-25T01:53:32.368Z,2.96
2022-11-25T01:58:37.531Z,2.69
2022-11-25T02:03:45.222Z,2.71
2022-11-25T02:08:54.063Z,2.64
2022-11-25T02:13:58.073Z,2.79
2022-11-25T02:19:03.901Z,2.71
2022-11-25T02:24:18.836Z,2.75
2022-11-25T02:29:23.065Z,2.66
2022-11-25T02:34:26.188Z,2.66
2022-11-25T02:39:29.423Z,2.65
2022-11-25T02:44:33.031Z,2.40
2022-11-25T02:49:35.529Z,2.58
2022-11-25T02:54:38.292Z,2.66
2022-11-25T02:59:40.957Z,2.75
2022-11-25T03:04:43.618Z,2.57
2022-11-25T03:09:47.068Z,2.74
2022-11-25T03:14:49.709Z,2.68
2022-11-25T03:19:52.368Z,2.69
2022-11-25T03:24:54.895Z,2.79
2022-11-25T03:29:57.473Z,2.55
2022-11-25T03:35:00.361Z,2.47
2022-11-25T03:40:04.472Z,2.34
2022-11-25T03:45:10.476Z,2.37
2022-11-25T03:50:16.147Z,2.47
2022-11-25T03:55:20.767Z,2.58
2022-11-25T04:00:25.268Z,2.67
2022-11-25T04:05:34.995Z,2.43
2022-11-25T04:10:42.459Z,2.47
2022-11-25T04:15:50.927Z,2.33
2022-11-25T04:20:54.206Z,2.34
2022-11-25T04:25:57.215Z,2.53
2022-11-25T04:31:08.346Z,2.58
2022-11-25T04:36:13.946Z,2.61
2022-11-25T04:41:16.815Z,2.63
2022-11-25T04:46:24.912Z,2.48
2022-11-25T04:51:27.645Z,2.49
2022-11-25T04:56:34.501Z,2.45
2022-11-25T05:01:37.337Z,2.61
2022-11-25T05:06:53.010Z,2.49
2022-11-25T05:11:59.787Z,2.61
2022-11-25T05:17:04.263Z,2.66
2022-11-25T05:22:10.578Z,2.62
2022-11-25T05:27:13.891Z,2.74
2022-11-25T05:32:17.559Z,2.93
2022-11-25T05:37:24.303Z,2.93
2022-11-25T05:42:34.411Z,2.74
2022-11-25T05:47:39.776Z,2.78
2022-11-25T05:52:43.349Z,2.73
2022-11-25T05:57:46.244Z,2.82
2022-11-25T06:02:52.447Z,3.13
2022-11-25T06:07:56.982Z,4.12
2022-11-25T06:13:02.649Z,3.61
2022-11-25T06:18:05.336Z,3.32
2022-11-25T06:23:10.408Z,3.24
2022-11-25T06:28:14.436Z,3.48
2022-11-25T06:33:22.144Z,3.55
2022-11-25T06:38:25.370Z,3.64
2022-11-25T06:43:27.940Z,3.58
2022-11-25T06:48:30.531Z,3.33
2022-11-25T06:53:33.843Z,3.51
2022-11-25T06:58:37.644Z,3.93
2022-11-25T07:03:40.623Z,3.69
2022-11-25T07:08:43.987Z,3.51
2022-11-25T07:13:47.611Z,3.41
2022-11-25T07:18:50.143Z,3.41
2022-11-25T07:23:53.263Z,3.60
2022-11-25T07:28:59.475Z,4.66
2022-11-25T07:34:08.226Z,4.46
2022-11-25T07:39:17.681Z,4.01
2022-11-25T07:44:21.169Z,4.41
2022-11-25T07:49:34.354Z,4.26
2022-11-25T07:54:37.162Z,4.02
2022-11-25T07:59:41.871Z,3.97
2022-11-25T08:04:44.269Z,3.88
2022-11-25T08:09:46.803Z,4.05
2022-11-25T08:14:49.320Z,4.01
2022-11-25T08:19:51.844Z,4.09
2022-11-25T08:24:54.332Z,3.92
2022-11-25T08:29:57.250Z,3.89
2022-11-25T08:34:59.804Z,4.19
2022-11-25T08:40:02.488Z,4.88
2022-11-25T08:45:07.166Z,4.37
2022-11-25T08:50:11.107Z,4.18
2022-11-25T08:55:14.062Z,4.10
2022-11-25T09:00:17.036Z,4.16
2022-11-25T09:05:19.805Z,4.26
2022-11-25T09:10:22.422Z,4.29
2022-11-25T09:15:25.350Z,4.43
2022-11-25T09:20:28.657Z,3.85
2022-11-25T09:25:31.204Z,4.05
2022-11-25T09:30:33.872Z,4.48
2022-11-25T09:35:37.513Z,4.74
2022-11-25T09:40:57.417Z,5.02
2022-11-25T09:46:43.725Z,4.43
2022-11-25T09:52:14.485Z,4.50
2022-11-25T09:57:30.527Z,4.55
2022-11-25T10:02:52.814Z,4.46
2022-11-25T10:08:03.857Z,4.35
2022-11-25T10:13:14.651Z,4.23
2022-11-25T10:18:34.883Z,3.99
2022-11-25T10:23:40.140Z,4.01
2022-11-25T10:29:14.119Z,4.10
2022-11-25T10:34:38.613Z,4.05
2022-11-25T10:39:41.394Z,4.34
2022-11-25T10:44:43.866Z,4.55
2022-11-25T10:49:58.343Z,4.46
2022-11-25T10:55:31.300Z,4.24
2022-11-25T11:00:37.297Z,4.07
2022-11-25T11:05:49.493Z,4.12
2022-11-25T11:11:15.820Z,4.00
2022-11-25T11:16:51.758Z,4.04
2022-11-25T11:21:57.478Z,4.14
2022-11-25T11:27:07.055Z,4.01
2022-11-25T11:32:23.847Z,3.93
2022-11-25T11:37:46.434Z,3.96
2022-11-25T11:43:24.399Z,4.10
2022-11-25T11:48:54.894Z,4.31
2022-11-25T11:53:57.370Z,4.15
2022-11-25T11:59:18.399Z,4.21
2022-11-25T12:04:37.900Z,3.99
2022-11-25T12:10:00.132Z,4.03
2022-11-25T12:15:19.669Z,4.11
2022-11-25T12:21:05.624Z,4.15
2022-11-25T12:26:21.283Z,4.09
2022-11-25T12:31:42.511Z,4.03
2022-11-25T12:36:46.998Z,3.98
2022-11-25T12:42:00.096Z,4.03
2022-11-25T12:47:02.604Z,3.93
2022-11-25T12:52:19.889Z,3.90
2022-11-25T12:57:44.503Z,3.95
2022-11-25T13:03:51.316Z,3.85
2022-11-25T13:09:00.717Z,3.88
2022-11-25T13:14:38.577Z,3.76
2022-11-25T13:19:41.885Z,3.46
2022-11-25T13:24:44.519Z,3.37
2022-11-25T13:29:54.967Z,3.41
2022-11-25T13:35:25.055Z,3.54
2022-11-25T13:40:28.825Z,3.65
2022-11-25T13:45:33.381Z,3.74
2022-11-25T13:51:03.499Z,3.83
2022-11-25T13:56:20.746Z,3.58
2022-11-25T14:01:29.841Z,3.56
2022-11-25T14:07:03.691Z,3.55
2022-11-25T14:12:28.135Z,3.65
2022-11-25T14:17:42.908Z,3.61
2022-11-25T14:22:54.410Z,3.55
2022-11-25T14:28:15.211Z,3.53
2022-11-25T14:33:44.058Z,3.46
2022-11-25T14:39:02.045Z,3.78
2022-11-25T14:44:17.503Z,3.91
2022-11-25T14:49:44.844Z,3.67
2022-11-25T14:54:44.745Z,3.82
2022-11-25T14:59:47.563Z,3.81
2022-11-25T15:04:50.244Z,3.66
2022-11-25T15:09:52.774Z,3.78
2022-11-25T15:14:56.701Z,3.77
2022-11-25T15:20:04.892Z,3.69
2022-11-25T15:25:15.120Z,3.73
2022-11-25T15:30:23.163Z,3.62
2022-11-25T15:35:27.568Z,3.57
2022-11-25T15:40:43.336Z,3.73
2022-11-25T15:45:49.897Z,3.68
2022-11-25T15:50:52.550Z,3.66
2022-11-25T15:56:01.364Z,3.58
2022-11-25T16:01:22.633Z,3.61
2022-11-25T16:06:29.015Z,3.75
2022-11-25T16:11:45.389Z,3.84
2022-11-25T16:16:48.450Z,3.89
2022-11-25T16:21:56.857Z,3.74
2022-11-25T16:27:05.863Z,3.84
2022-11-25T16:32:17.194Z,3.71
2022-11-25T16:37:19.692Z,3.71
2022-11-25T16:42:22.935Z,3.72
2022-11-25T16:47:27.087Z,3.74
2022-11-25T16:52:29.504Z,3.82
2022-11-25T16:57:32.032Z,3.99
2022-11-25T17:02:35.769Z,3.78
2022-11-25T17:07:38.523Z,3.74
2022-11-25T17:12:42.687Z,3.89
2022-11-25T17:17:47.903Z,3.73
2022-11-25T17:22:54.180Z,3.76
2022-11-25T17:27:56.870Z,3.78
2022-11-25T17:33:06.724Z,3.78
2022-11-25T17:38:20.678Z,3.76
2022-11-25T17:43:23.288Z,3.66
2022-11-25T17:48:25.911Z,3.59
2022-11-25T17:53:28.492Z,3.52
2022-11-25T17:58:31.126Z,3.56
2022-11-25T18:03:33.678Z,3.60
2022-11-25T18:08:36.766Z,3.57
2022-11-25T18:13:41.531Z,3.67
2022-11-25T18:18:44.008Z,3.73
2022-11-25T18:23:46.636Z,3.73
2022-11-25T18:28:49.093Z,3.79
2022-11-25T18:33:51.744Z,3.79
2022-11-25T18:38:54.264Z,3.77
2022-11-25T18:43:59.940Z,3.70
2022-11-25T18:49:02.515Z,3.55
2022-11-25T18:54:05.081Z,3.56
2022-11-25T18:59:13.589Z,3.25
2022-11-25T19:04:16.878Z,3.49
2022-11-25T19:09:39.823Z,3.29
2022-11-25T19:14:43.071Z,3.37
2022-11-25T19:19:45.646Z,3.36
2022-11-25T19:24:48.102Z,3.45
2022-11-25T19:29:52.167Z,3.44
2022-11-25T19:35:05.361Z,3.51
2022-11-25T19:40:20.320Z,3.53
2022-11-25T19:45:23.129Z,3.46
2022-11-25T19:50:28.079Z,3.44
2022-11-25T19:55:32.653Z,3.33
2022-11-25T20:00:35.141Z,3.46
2022-11-25T20:05:38.843Z,3.29
2022-11-25T20:10:41.298Z,3.34
2022-11-25T20:15:45.561Z,3.28
2022-11-25T20:21:03.663Z,3.19
2022-11-25T20:26:06.264Z,3.07
2022-11-25T20:31:12.095Z,3.19
2022-11-25T20:36:18.385Z,2.98
2022-11-25T20:41:27.519Z,3.00
2022-11-25T20:46:30.800Z,3.03
2022-11-25T20:51:33.269Z,3.05
2022-11-25T20:56:35.840Z,3.07
2022-11-25T21:01:38.454Z,2.98
2022-11-25T21:06:41.405Z,2.93
2022-11-25T21:11:43.997Z,3.02
2022-11-25T21:16:47.616Z,2.91
2022-11-25T21:21:51.339Z,2.95
2022-11-25T21:26:54.727Z,2.86
2022-11-25T21:31:57.631Z,2.91
2022-11-25T21:37:00.394Z,3.10
2022-11-25T21:42:07.419Z,3.00
2022-11-25T21:47:30.834Z,2.85
2022-11-25T21:52:33.301Z,2.85
2022-11-25T21:57:36.147Z,2.88
2022-11-25T22:02:38.617Z,2.89
2022-11-25T22:07:41.149Z,2.99
2022-11-25T22:12:47.261Z,2.89
2022-11-25T22:17:55.754Z,2.79
2022-11-25T22:22:58.369Z,2.85
2022-11-25T22:28:00.884Z,2.72
2022-11-25T22:33:04.033Z,2.67
2022-11-25T22:38:18.103Z,2.73
2022-11-25T22:43:32.110Z,2.65
2022-11-25T22:48:36.573Z,2.53
2022-11-25T22:53:39.147Z,2.68
2022-11-25T22:58:41.636Z,2.50
2022-11-25T23:03:45.082Z,2.40
2022-11-25T23:08:47.598Z,2.46
2022-11-25T23:13:50.073Z,2.37
2022-11-25T23:18:53.165Z,2.49
2022-11-25T23:23:56.254Z,2.42
2022-11-25T23:28:58.717Z,2.47
2022-11-25T23:34:01.374Z,2.55
2022-11-25T23:39:04.599Z,2.53
2022-11-25T23:44:25.108Z,2.48
2022-11-25T23:49:34.106Z,2.45
2022-11-25T23:54:40.826Z,2.59
2022-11-25T23:59:44.027Z,2.64
